sensor_id;sensor_type;location;lat;lon;timestamp;P1;durP1;ratioP1;P2;durP2;ratioP2
75854;SDS011;64502;59.976;30.316;2023-06-04T00:02:09;1.75;;;0.15;;
75854;SDS011;64502;59.976;30.316;2023-06-04T00:04:35;1.60;;;0.40;;
75854;SDS011;64502;59.976;30.316;2023-06-04T00:07:00;2.08;;;0.35;;
75854;SDS011;64502;59.976;30.316;2023-06-04T00:09:26;0.93;;;0.17;;
75854;SDS011;64502;59.976;30.316;2023-06-04T00:11:51;2.03;;;0.20;;
75854;SDS011;64502;59.976;30.316;2023-06-04T00:14:17;1.52;;;0.25;;
75854;SDS011;64502;59.976;30.316;2023-06-04T00:16:42;1.13;;;0.10;;
75854;SDS011;64502;59.976;30.316;2023-06-04T00:19:08;1.48;;;0.17;;
75854;SDS011;64502;59.976;30.316;2023-06-04T00:21:34;1.63;;;0.30;;
75854;SDS011;64502;59.976;30.316;2023-06-04T00:24:00;1.45;;;0.30;;
75854;SDS011;64502;59.976;30.316;2023-06-04T00:26:26;1.27;;;0.20;;
75854;SDS011;64502;59.976;30.316;2023-06-04T00:28:53;2.55;;;0.60;;
75854;SDS011;64502;59.976;30.316;2023-06-04T00:31:20;1.13;;;0.20;;
75854;SDS011;64502;59.976;30.316;2023-06-04T00:33:46;2.92;;;0.40;;
75854;SDS011;64502;59.976;30.316;2023-06-04T00:36:12;1.67;;;0.20;;
75854;SDS011;64502;59.976;30.316;2023-06-04T00:38:38;1.77;;;0.20;;
75854;SDS011;64502;59.976;30.316;2023-06-04T00:41:03;2.03;;;0.10;;
75854;SDS011;64502;59.976;30.316;2023-06-04T00:43:29;1.65;;;0.40;;
75854;SDS011;64502;59.976;30.316;2023-06-04T00:45:56;3.42;;;0.38;;
75854;SDS011;64502;59.976;30.316;2023-06-04T00:48:23;1.20;;;0.20;;
75854;SDS011;64502;59.976;30.316;2023-06-04T00:50:49;3.15;;;0.10;;
75854;SDS011;64502;59.976;30.316;2023-06-04T00:53:15;1.15;;;0.47;;
75854;SDS011;64502;59.976;30.316;2023-06-04T00:55:41;1.92;;;0.22;;
75854;SDS011;64502;59.976;30.316;2023-06-04T00:58:08;0.77;;;0.20;;
75854;SDS011;64502;59.976;30.316;2023-06-04T01:00:34;1.33;;;0.30;;
75854;SDS011;64502;59.976;30.316;2023-06-04T01:03:03;2.38;;;0.30;;
75854;SDS011;64502;59.976;30.316;2023-06-04T01:05:36;3.55;;;0.52;;
75854;SDS011;64502;59.976;30.316;2023-06-04T01:08:05;1.23;;;0.22;;
75854;SDS011;64502;59.976;30.316;2023-06-04T01:10:34;0.93;;;0.20;;
75854;SDS011;64502;59.976;30.316;2023-06-04T01:13:00;2.10;;;0.30;;
75854;SDS011;64502;59.976;30.316;2023-06-04T01:15:25;2.28;;;0.35;;
75854;SDS011;64502;59.976;30.316;2023-06-04T01:17:53;1.40;;;0.35;;
75854;SDS011;64502;59.976;30.316;2023-06-04T01:20:33;2.03;;;0.32;;
75854;SDS011;64502;59.976;30.316;2023-06-04T01:26:10;1.50;;;0.25;;
75854;SDS011;64502;59.976;30.316;2023-06-04T01:28:37;1.00;;;0.17;;
75854;SDS011;64502;59.976;30.316;2023-06-04T01:31:03;2.63;;;0.28;;
75854;SDS011;64502;59.976;30.316;2023-06-04T01:33:32;2.90;;;0.22;;
75854;SDS011;64502;59.976;30.316;2023-06-04T01:35:58;2.50;;;0.43;;
75854;SDS011;64502;59.976;30.316;2023-06-04T01:38:25;5.15;;;0.45;;
75854;SDS011;64502;59.976;30.316;2023-06-04T01:40:50;1.52;;;0.40;;
75854;SDS011;64502;59.976;30.316;2023-06-04T01:43:18;2.33;;;0.22;;
75854;SDS011;64502;59.976;30.316;2023-06-04T01:45:43;3.20;;;1.02;;
75854;SDS011;64502;59.976;30.316;2023-06-04T01:48:09;3.60;;;0.35;;
75854;SDS011;64502;59.976;30.316;2023-06-04T01:50:34;1.98;;;0.40;;
75854;SDS011;64502;59.976;30.316;2023-06-04T01:53:00;4.50;;;0.40;;
75854;SDS011;64502;59.976;30.316;2023-06-04T01:55:25;3.58;;;0.68;;
75854;SDS011;64502;59.976;30.316;2023-06-04T01:57:53;2.22;;;0.52;;
75854;SDS011;64502;59.976;30.316;2023-06-04T02:00:18;3.45;;;0.65;;
75854;SDS011;64502;59.976;30.316;2023-06-04T02:02:44;3.63;;;0.80;;
75854;SDS011;64502;59.976;30.316;2023-06-04T02:05:11;2.70;;;0.65;;
75854;SDS011;64502;59.976;30.316;2023-06-04T02:07:37;3.80;;;0.57;;
75854;SDS011;64502;59.976;30.316;2023-06-04T02:10:14;3.08;;;0.93;;
75854;SDS011;64502;59.976;30.316;2023-06-04T02:12:52;8.13;;;0.82;;
75854;SDS011;64502;59.976;30.316;2023-06-04T02:15:25;5.30;;;1.30;;
75854;SDS011;64502;59.976;30.316;2023-06-04T02:17:53;3.28;;;1.08;;
75854;SDS011;64502;59.976;30.316;2023-06-04T02:20:23;3.35;;;0.82;;
75854;SDS011;64502;59.976;30.316;2023-06-04T02:22:48;4.80;;;1.05;;
75854;SDS011;64502;59.976;30.316;2023-06-04T02:25:14;2.80;;;0.50;;
75854;SDS011;64502;59.976;30.316;2023-06-04T02:27:40;5.20;;;0.75;;
75854;SDS011;64502;59.976;30.316;2023-06-04T02:30:06;2.63;;;0.38;;
75854;SDS011;64502;59.976;30.316;2023-06-04T02:32:32;3.67;;;0.55;;
75854;SDS011;64502;59.976;30.316;2023-06-04T02:34:58;2.38;;;0.32;;
75854;SDS011;64502;59.976;30.316;2023-06-04T02:37:24;4.00;;;0.30;;
75854;SDS011;64502;59.976;30.316;2023-06-04T02:39:50;1.67;;;0.38;;
75854;SDS011;64502;59.976;30.316;2023-06-04T02:42:15;2.50;;;0.28;;
75854;SDS011;64502;59.976;30.316;2023-06-04T02:44:41;2.30;;;0.38;;
75854;SDS011;64502;59.976;30.316;2023-06-04T02:47:06;2.63;;;0.65;;
75854;SDS011;64502;59.976;30.316;2023-06-04T02:49:32;3.53;;;0.90;;
75854;SDS011;64502;59.976;30.316;2023-06-04T02:51:59;4.22;;;0.60;;
75854;SDS011;64502;59.976;30.316;2023-06-04T02:54:24;3.08;;;0.77;;
75854;SDS011;64502;59.976;30.316;2023-06-04T02:56:50;2.47;;;0.40;;
75854;SDS011;64502;59.976;30.316;2023-06-04T02:59:16;1.67;;;0.50;;
75854;SDS011;64502;59.976;30.316;2023-06-04T03:01:41;1.77;;;0.38;;
75854;SDS011;64502;59.976;30.316;2023-06-04T03:04:07;2.40;;;0.45;;
75854;SDS011;64502;59.976;30.316;2023-06-04T03:06:35;3.13;;;0.80;;
75854;SDS011;64502;59.976;30.316;2023-06-04T03:09:04;2.55;;;0.73;;
75854;SDS011;64502;59.976;30.316;2023-06-04T03:11:30;1.70;;;0.60;;
75854;SDS011;64502;59.976;30.316;2023-06-04T03:13:55;1.90;;;0.90;;
75854;SDS011;64502;59.976;30.316;2023-06-04T03:16:21;2.30;;;0.50;;
75854;SDS011;64502;59.976;30.316;2023-06-04T03:18:47;2.00;;;0.30;;
75854;SDS011;64502;59.976;30.316;2023-06-04T03:21:12;2.00;;;0.55;;
75854;SDS011;64502;59.976;30.316;2023-06-04T03:23:38;2.30;;;0.70;;
75854;SDS011;64502;59.976;30.316;2023-06-04T03:26:04;3.10;;;0.30;;
75854;SDS011;64502;59.976;30.316;2023-06-04T03:28:30;2.67;;;0.40;;
75854;SDS011;64502;59.976;30.316;2023-06-04T03:30:57;2.80;;;0.50;;
75854;SDS011;64502;59.976;30.316;2023-06-04T03:33:23;2.42;;;0.40;;
75854;SDS011;64502;59.976;30.316;2023-06-04T03:35:49;1.88;;;0.30;;
75854;SDS011;64502;59.976;30.316;2023-06-04T03:38:15;2.47;;;0.52;;
75854;SDS011;64502;59.976;30.316;2023-06-04T03:40:40;2.05;;;0.40;;
75854;SDS011;64502;59.976;30.316;2023-06-04T03:43:06;1.40;;;0.20;;
75854;SDS011;64502;59.976;30.316;2023-06-04T03:45:32;2.40;;;0.75;;
75854;SDS011;64502;59.976;30.316;2023-06-04T03:47:58;2.00;;;0.50;;
75854;SDS011;64502;59.976;30.316;2023-06-04T03:50:24;1.38;;;0.45;;
75854;SDS011;64502;59.976;30.316;2023-06-04T03:52:50;1.77;;;0.50;;
75854;SDS011;64502;59.976;30.316;2023-06-04T03:55:16;1.60;;;0.40;;
75854;SDS011;64502;59.976;30.316;2023-06-04T03:57:41;1.30;;;0.38;;
75854;SDS011;64502;59.976;30.316;2023-06-04T04:00:07;1.65;;;0.40;;
75854;SDS011;64502;59.976;30.316;2023-06-04T04:02:37;1.85;;;0.30;;
75854;SDS011;64502;59.976;30.316;2023-06-04T04:05:03;2.03;;;0.20;;
75854;SDS011;64502;59.976;30.316;2023-06-04T04:07:29;2.40;;;0.30;;
75854;SDS011;64502;59.976;30.316;2023-06-04T04:09:54;1.80;;;0.65;;
75854;SDS011;64502;59.976;30.316;2023-06-04T04:12:20;2.30;;;0.30;;
75854;SDS011;64502;59.976;30.316;2023-06-04T04:14:45;2.50;;;0.40;;
75854;SDS011;64502;59.976;30.316;2023-06-04T04:17:12;1.42;;;0.40;;
75854;SDS011;64502;59.976;30.316;2023-06-04T04:19:38;1.83;;;0.65;;
75854;SDS011;64502;59.976;30.316;2023-06-04T04:22:04;2.00;;;0.50;;
75854;SDS011;64502;59.976;30.316;2023-06-04T04:24:30;2.00;;;0.63;;
75854;SDS011;64502;59.976;30.316;2023-06-04T04:26:56;2.30;;;0.52;;
75854;SDS011;64502;59.976;30.316;2023-06-04T04:29:23;2.28;;;0.60;;
75854;SDS011;64502;59.976;30.316;2023-06-04T04:31:53;2.67;;;0.50;;
75854;SDS011;64502;59.976;30.316;2023-06-04T04:34:22;1.95;;;0.28;;
75854;SDS011;64502;59.976;30.316;2023-06-04T04:36:50;2.60;;;0.40;;
75854;SDS011;64502;59.976;30.316;2023-06-04T04:39:22;1.75;;;0.45;;
75854;SDS011;64502;59.976;30.316;2023-06-04T04:41:49;2.63;;;0.60;;
75854;SDS011;64502;59.976;30.316;2023-06-04T04:44:14;4.25;;;1.17;;
75854;SDS011;64502;59.976;30.316;2023-06-04T04:46:40;1.50;;;0.47;;
75854;SDS011;64502;59.976;30.316;2023-06-04T04:49:05;2.42;;;0.65;;
75854;SDS011;64502;59.976;30.316;2023-06-04T04:51:31;4.15;;;0.80;;
75854;SDS011;64502;59.976;30.316;2023-06-04T04:53:57;1.70;;;0.52;;
75854;SDS011;64502;59.976;30.316;2023-06-04T04:56:25;2.25;;;0.65;;
75854;SDS011;64502;59.976;30.316;2023-06-04T04:58:52;4.45;;;0.75;;
75854;SDS011;64502;59.976;30.316;2023-06-04T05:01:18;2.58;;;0.80;;
75854;SDS011;64502;59.976;30.316;2023-06-04T05:03:43;2.83;;;0.65;;
75854;SDS011;64502;59.976;30.316;2023-06-04T05:06:09;2.05;;;0.60;;
75854;SDS011;64502;59.976;30.316;2023-06-04T05:08:35;1.80;;;0.80;;
75854;SDS011;64502;59.976;30.316;2023-06-04T05:11:00;2.50;;;0.60;;
75854;SDS011;64502;59.976;30.316;2023-06-04T05:13:26;1.98;;;0.60;;
75854;SDS011;64502;59.976;30.316;2023-06-04T05:15:52;2.05;;;0.43;;
75854;SDS011;64502;59.976;30.316;2023-06-04T05:18:17;2.67;;;0.82;;
75854;SDS011;64502;59.976;30.316;2023-06-04T05:20:45;1.45;;;0.47;;
75854;SDS011;64502;59.976;30.316;2023-06-04T05:23:11;2.25;;;0.60;;
75854;SDS011;64502;59.976;30.316;2023-06-04T05:25:37;2.10;;;0.80;;
75854;SDS011;64502;59.976;30.316;2023-06-04T05:28:03;2.00;;;0.80;;
75854;SDS011;64502;59.976;30.316;2023-06-04T05:30:31;4.40;;;0.70;;
75854;SDS011;64502;59.976;30.316;2023-06-04T05:32:58;2.65;;;1.00;;
75854;SDS011;64502;59.976;30.316;2023-06-04T05:35:24;2.10;;;0.82;;
75854;SDS011;64502;59.976;30.316;2023-06-04T05:37:50;2.50;;;0.70;;
75854;SDS011;64502;59.976;30.316;2023-06-04T05:40:19;1.80;;;0.50;;
75854;SDS011;64502;59.976;30.316;2023-06-04T05:42:46;3.15;;;0.73;;
75854;SDS011;64502;59.976;30.316;2023-06-04T05:45:11;3.13;;;0.85;;
75854;SDS011;64502;59.976;30.316;2023-06-04T05:47:37;2.28;;;0.70;;
75854;SDS011;64502;59.976;30.316;2023-06-04T05:50:03;2.15;;;0.80;;
75854;SDS011;64502;59.976;30.316;2023-06-04T05:52:28;3.03;;;1.08;;
75854;SDS011;64502;59.976;30.316;2023-06-04T05:54:54;3.25;;;0.93;;
75854;SDS011;64502;59.976;30.316;2023-06-04T05:57:19;2.33;;;0.98;;
75854;SDS011;64502;59.976;30.316;2023-06-04T05:59:46;2.00;;;0.93;;
75854;SDS011;64502;59.976;30.316;2023-06-04T06:02:11;2.08;;;0.90;;
75854;SDS011;64502;59.976;30.316;2023-06-04T06:04:38;2.33;;;0.75;;
75854;SDS011;64502;59.976;30.316;2023-06-04T06:07:03;2.10;;;0.60;;
75854;SDS011;64502;59.976;30.316;2023-06-04T06:09:30;1.77;;;0.70;;
75854;SDS011;64502;59.976;30.316;2023-06-04T06:11:55;5.22;;;0.95;;
75854;SDS011;64502;59.976;30.316;2023-06-04T06:14:20;4.03;;;0.70;;
75854;SDS011;64502;59.976;30.316;2023-06-04T06:16:48;3.08;;;0.73;;
75854;SDS011;64502;59.976;30.316;2023-06-04T06:19:14;1.88;;;0.70;;
75854;SDS011;64502;59.976;30.316;2023-06-04T06:21:39;2.33;;;0.90;;
75854;SDS011;64502;59.976;30.316;2023-06-04T06:24:05;3.92;;;0.73;;
75854;SDS011;64502;59.976;30.316;2023-06-04T06:26:30;2.42;;;0.43;;
75854;SDS011;64502;59.976;30.316;2023-06-04T06:28:56;1.60;;;0.52;;
75854;SDS011;64502;59.976;30.316;2023-06-04T06:31:22;3.03;;;0.73;;
75854;SDS011;64502;59.976;30.316;2023-06-04T06:33:48;2.85;;;0.80;;
75854;SDS011;64502;59.976;30.316;2023-06-04T06:36:13;2.03;;;0.63;;
75854;SDS011;64502;59.976;30.316;2023-06-04T06:38:39;3.22;;;0.93;;
75854;SDS011;64502;59.976;30.316;2023-06-04T06:41:05;2.53;;;0.65;;
75854;SDS011;64502;59.976;30.316;2023-06-04T06:43:31;2.67;;;0.60;;
75854;SDS011;64502;59.976;30.316;2023-06-04T06:45:58;2.30;;;0.40;;
75854;SDS011;64502;59.976;30.316;2023-06-04T06:48:23;2.75;;;0.93;;
75854;SDS011;64502;59.976;30.316;2023-06-04T06:50:49;1.98;;;0.88;;
75854;SDS011;64502;59.976;30.316;2023-06-04T06:53:14;1.38;;;0.52;;
75854;SDS011;64502;59.976;30.316;2023-06-04T06:55:40;3.00;;;0.95;;
75854;SDS011;64502;59.976;30.316;2023-06-04T06:58:05;2.28;;;0.50;;
75854;SDS011;64502;59.976;30.316;2023-06-04T07:00:31;1.48;;;0.50;;
75854;SDS011;64502;59.976;30.316;2023-06-04T07:02:56;5.13;;;0.65;;
75854;SDS011;64502;59.976;30.316;2023-06-04T07:05:22;3.80;;;0.80;;
75854;SDS011;64502;59.976;30.316;2023-06-04T07:07:47;1.73;;;0.60;;
75854;SDS011;64502;59.976;30.316;2023-06-04T07:10:13;2.92;;;1.20;;
75854;SDS011;64502;59.976;30.316;2023-06-04T07:12:39;1.63;;;0.77;;
75854;SDS011;64502;59.976;30.316;2023-06-04T07:15:05;4.30;;;1.10;;
75854;SDS011;64502;59.976;30.316;2023-06-04T07:17:31;2.35;;;0.30;;
75854;SDS011;64502;59.976;30.316;2023-06-04T07:19:57;2.45;;;0.60;;
75854;SDS011;64502;59.976;30.316;2023-06-04T07:22:23;2.08;;;0.60;;
75854;SDS011;64502;59.976;30.316;2023-06-04T07:24:48;2.10;;;0.80;;
75854;SDS011;64502;59.976;30.316;2023-06-04T07:27:14;3.42;;;0.65;;
75854;SDS011;64502;59.976;30.316;2023-06-04T07:29:40;1.58;;;0.47;;
75854;SDS011;64502;59.976;30.316;2023-06-04T07:32:09;4.53;;;0.80;;
75854;SDS011;64502;59.976;30.316;2023-06-04T07:34:35;5.63;;;0.55;;
75854;SDS011;64502;59.976;30.316;2023-06-04T07:37:02;2.45;;;0.70;;
75854;SDS011;64502;59.976;30.316;2023-06-04T07:39:28;3.33;;;0.82;;
75854;SDS011;64502;59.976;30.316;2023-06-04T07:41:53;5.88;;;1.38;;
75854;SDS011;64502;59.976;30.316;2023-06-04T07:44:19;4.68;;;1.10;;
75854;SDS011;64502;59.976;30.316;2023-06-04T07:46:44;5.70;;;1.33;;
75854;SDS011;64502;59.976;30.316;2023-06-04T07:49:09;6.65;;;3.00;;
75854;SDS011;64502;59.976;30.316;2023-06-04T07:51:35;5.93;;;1.85;;
75854;SDS011;64502;59.976;30.316;2023-06-04T07:54:03;3.30;;;1.42;;
75854;SDS011;64502;59.976;30.316;2023-06-04T07:56:29;2.95;;;1.20;;
75854;SDS011;64502;59.976;30.316;2023-06-04T07:58:54;3.30;;;1.17;;
75854;SDS011;64502;59.976;30.316;2023-06-04T08:01:20;4.03;;;1.40;;
75854;SDS011;64502;59.976;30.316;2023-06-04T08:03:46;4.95;;;0.93;;
75854;SDS011;64502;59.976;30.316;2023-06-04T08:06:12;3.45;;;1.38;;
75854;SDS011;64502;59.976;30.316;2023-06-04T08:08:42;3.67;;;1.13;;
75854;SDS011;64502;59.976;30.316;2023-06-04T08:11:14;4.90;;;1.13;;
75854;SDS011;64502;59.976;30.316;2023-06-04T08:13:40;4.03;;;1.17;;
75854;SDS011;64502;59.976;30.316;2023-06-04T08:16:06;2.33;;;1.02;;
75854;SDS011;64502;59.976;30.316;2023-06-04T08:18:37;2.35;;;0.73;;
75854;SDS011;64502;59.976;30.316;2023-06-04T08:21:03;4.07;;;0.82;;
75854;SDS011;64502;59.976;30.316;2023-06-04T08:23:28;3.22;;;0.82;;
75854;SDS011;64502;59.976;30.316;2023-06-04T08:25:54;2.90;;;0.75;;
75854;SDS011;64502;59.976;30.316;2023-06-04T08:28:19;2.40;;;0.50;;
75854;SDS011;64502;59.976;30.316;2023-06-04T08:30:45;3.83;;;0.80;;
75854;SDS011;64502;59.976;30.316;2023-06-04T08:33:13;1.77;;;0.70;;
75854;SDS011;64502;59.976;30.316;2023-06-04T08:35:38;2.22;;;0.60;;
75854;SDS011;64502;59.976;30.316;2023-06-04T08:38:04;1.98;;;0.50;;
75854;SDS011;64502;59.976;30.316;2023-06-04T08:40:30;1.70;;;0.43;;
75854;SDS011;64502;59.976;30.316;2023-06-04T08:42:56;1.95;;;0.52;;
75854;SDS011;64502;59.976;30.316;2023-06-04T08:45:24;4.07;;;1.20;;
75854;SDS011;64502;59.976;30.316;2023-06-04T08:47:51;1.75;;;0.60;;
75854;SDS011;64502;59.976;30.316;2023-06-04T08:50:17;1.58;;;0.50;;
75854;SDS011;64502;59.976;30.316;2023-06-04T08:52:44;2.95;;;0.65;;
75854;SDS011;64502;59.976;30.316;2023-06-04T08:55:11;1.70;;;0.35;;
75854;SDS011;64502;59.976;30.316;2023-06-04T08:57:39;3.47;;;1.08;;
75854;SDS011;64502;59.976;30.316;2023-06-04T09:00:05;2.08;;;0.90;;
75854;SDS011;64502;59.976;30.316;2023-06-04T09:02:33;1.90;;;0.80;;
75854;SDS011;64502;59.976;30.316;2023-06-04T09:05:03;2.33;;;0.55;;
75854;SDS011;64502;59.976;30.316;2023-06-04T09:07:29;4.13;;;0.80;;
75854;SDS011;64502;59.976;30.316;2023-06-04T09:09:56;2.20;;;0.70;;
75854;SDS011;64502;59.976;30.316;2023-06-04T09:12:24;1.90;;;0.43;;
75854;SDS011;64502;59.976;30.316;2023-06-04T09:14:50;1.58;;;0.50;;
75854;SDS011;64502;59.976;30.316;2023-06-04T09:17:22;1.15;;;0.32;;
75854;SDS011;64502;59.976;30.316;2023-06-04T09:19:48;2.00;;;0.43;;
75854;SDS011;64502;59.976;30.316;2023-06-04T09:22:15;2.15;;;0.57;;
75854;SDS011;64502;59.976;30.316;2023-06-04T09:24:41;2.33;;;0.50;;
75854;SDS011;64502;59.976;30.316;2023-06-04T09:27:14;1.80;;;0.77;;
75854;SDS011;64502;59.976;30.316;2023-06-04T09:29:51;2.78;;;0.70;;
75854;SDS011;64502;59.976;30.316;2023-06-04T09:32:24;2.63;;;0.77;;
75854;SDS011;64502;59.976;30.316;2023-06-04T09:34:55;1.35;;;0.65;;
75854;SDS011;64502;59.976;30.316;2023-06-04T09:37:22;2.53;;;0.50;;
75854;SDS011;64502;59.976;30.316;2023-06-04T09:39:54;1.95;;;0.50;;
75854;SDS011;64502;59.976;30.316;2023-06-04T09:42:21;2.50;;;0.50;;
75854;SDS011;64502;59.976;30.316;2023-06-04T09:44:47;2.35;;;0.63;;
75854;SDS011;64502;59.976;30.316;2023-06-04T09:47:13;2.25;;;0.40;;
75854;SDS011;64502;59.976;30.316;2023-06-04T09:49:43;2.88;;;0.95;;
75854;SDS011;64502;59.976;30.316;2023-06-04T09:52:12;2.22;;;0.90;;
75854;SDS011;64502;59.976;30.316;2023-06-04T09:54:39;1.60;;;0.35;;
75854;SDS011;64502;59.976;30.316;2023-06-04T09:57:16;1.83;;;0.63;;
75854;SDS011;64502;59.976;30.316;2023-06-04T09:59:47;2.08;;;0.60;;
75854;SDS011;64502;59.976;30.316;2023-06-04T10:02:21;2.40;;;0.43;;
75854;SDS011;64502;59.976;30.316;2023-06-04T10:04:53;2.85;;;0.55;;
75854;SDS011;64502;59.976;30.316;2023-06-04T10:07:24;2.25;;;0.50;;
75854;SDS011;64502;59.976;30.316;2023-06-04T10:09:51;4.28;;;0.70;;
75854;SDS011;64502;59.976;30.316;2023-06-04T10:12:19;1.52;;;0.45;;
75854;SDS011;64502;59.976;30.316;2023-06-04T10:14:58;2.92;;;0.50;;
75854;SDS011;64502;59.976;30.316;2023-06-04T10:17:30;1.75;;;0.40;;
75854;SDS011;64502;59.976;30.316;2023-06-04T10:19:57;1.30;;;0.32;;
75854;SDS011;64502;59.976;30.316;2023-06-04T10:22:24;1.88;;;0.43;;
75854;SDS011;64502;59.976;30.316;2023-06-04T10:24:50;2.63;;;0.47;;
75854;SDS011;64502;59.976;30.316;2023-06-04T10:27:19;1.60;;;0.60;;
75854;SDS011;64502;59.976;30.316;2023-06-04T10:29:45;1.40;;;0.20;;
75854;SDS011;64502;59.976;30.316;2023-06-04T10:32:11;1.67;;;0.32;;
75854;SDS011;64502;59.976;30.316;2023-06-04T10:34:38;1.40;;;0.40;;
75854;SDS011;64502;59.976;30.316;2023-06-04T10:37:03;2.72;;;0.47;;
75854;SDS011;64502;59.976;30.316;2023-06-04T10:39:29;1.50;;;0.50;;
75854;SDS011;64502;59.976;30.316;2023-06-04T10:42:02;1.80;;;0.50;;
75854;SDS011;64502;59.976;30.316;2023-06-04T10:44:32;1.52;;;0.30;;
75854;SDS011;64502;59.976;30.316;2023-06-04T10:47:18;2.20;;;0.50;;
75854;SDS011;64502;59.976;30.316;2023-06-04T10:50:05;2.08;;;0.32;;
75854;SDS011;64502;59.976;30.316;2023-06-04T10:52:32;2.53;;;0.93;;
75854;SDS011;64502;59.976;30.316;2023-06-04T10:55:04;1.63;;;0.50;;
75854;SDS011;64502;59.976;30.316;2023-06-04T10:57:31;2.08;;;0.43;;
75854;SDS011;64502;59.976;30.316;2023-06-04T10:59:58;1.45;;;0.30;;
75854;SDS011;64502;59.976;30.316;2023-06-04T11:02:25;1.17;;;0.30;;
75854;SDS011;64502;59.976;30.316;2023-06-04T11:07:51;1.35;;;0.30;;
75854;SDS011;64502;59.976;30.316;2023-06-04T11:10:16;1.10;;;0.30;;
75854;SDS011;64502;59.976;30.316;2023-06-04T11:12:43;1.33;;;0.40;;
75854;SDS011;64502;59.976;30.316;2023-06-04T11:15:10;1.50;;;0.35;;
75854;SDS011;64502;59.976;30.316;2023-06-04T11:17:36;1.88;;;0.40;;
75854;SDS011;64502;59.976;30.316;2023-06-04T11:20:01;1.33;;;0.50;;
75854;SDS011;64502;59.976;30.316;2023-06-04T11:22:27;1.92;;;0.47;;
75854;SDS011;64502;59.976;30.316;2023-06-04T11:24:57;2.33;;;0.35;;
75854;SDS011;64502;59.976;30.316;2023-06-04T11:27:25;1.92;;;0.40;;
75854;SDS011;64502;59.976;30.316;2023-06-04T11:29:51;2.72;;;0.45;;
75854;SDS011;64502;59.976;30.316;2023-06-04T11:32:20;2.65;;;0.52;;
75854;SDS011;64502;59.976;30.316;2023-06-04T11:34:47;1.10;;;0.32;;
75854;SDS011;64502;59.976;30.316;2023-06-04T11:37:12;15.65;;;1.35;;
75854;SDS011;64502;59.976;30.316;2023-06-04T11:39:38;1.42;;;0.38;;
75854;SDS011;64502;59.976;30.316;2023-06-04T11:42:05;1.55;;;0.45;;
75854;SDS011;64502;59.976;30.316;2023-06-04T11:44:32;1.95;;;0.47;;
75854;SDS011;64502;59.976;30.316;2023-06-04T11:46:58;1.52;;;0.45;;
75854;SDS011;64502;59.976;30.316;2023-06-04T11:49:24;1.55;;;0.73;;
75854;SDS011;64502;59.976;30.316;2023-06-04T11:51:51;2.10;;;0.50;;
75854;SDS011;64502;59.976;30.316;2023-06-04T11:54:18;2.15;;;0.55;;
75854;SDS011;64502;59.976;30.316;2023-06-04T11:56:46;1.40;;;0.55;;
75854;SDS011;64502;59.976;30.316;2023-06-04T11:59:15;1.25;;;0.50;;
75854;SDS011;64502;59.976;30.316;2023-06-04T12:01:41;1.98;;;0.50;;
75854;SDS011;64502;59.976;30.316;2023-06-04T12:04:17;3.20;;;0.80;;
75854;SDS011;64502;59.976;30.316;2023-06-04T12:06:53;4.32;;;0.60;;
75854;SDS011;64502;59.976;30.316;2023-06-04T12:09:21;1.38;;;0.47;;
75854;SDS011;64502;59.976;30.316;2023-06-04T12:11:48;1.17;;;0.40;;
75854;SDS011;64502;59.976;30.316;2023-06-04T12:14:17;1.92;;;0.50;;
75854;SDS011;64502;59.976;30.316;2023-06-04T12:16:53;1.80;;;0.40;;
75854;SDS011;64502;59.976;30.316;2023-06-04T12:19:26;3.00;;;0.47;;
75854;SDS011;64502;59.976;30.316;2023-06-04T12:22:05;1.65;;;0.52;;
75854;SDS011;64502;59.976;30.316;2023-06-04T12:24:32;1.80;;;0.55;;
75854;SDS011;64502;59.976;30.316;2023-06-04T12:29:27;2.05;;;0.40;;
75854;SDS011;64502;59.976;30.316;2023-06-04T12:32:00;1.38;;;0.47;;
75854;SDS011;64502;59.976;30.316;2023-06-04T12:34:28;0.80;;;0.35;;
75854;SDS011;64502;59.976;30.316;2023-06-04T12:36:53;2.25;;;0.43;;
75854;SDS011;64502;59.976;30.316;2023-06-04T12:39:19;0.70;;;0.13;;
75854;SDS011;64502;59.976;30.316;2023-06-04T12:41:45;1.27;;;0.10;;
75854;SDS011;64502;59.976;30.316;2023-06-04T12:44:11;0.70;;;0.20;;
75854;SDS011;64502;59.976;30.316;2023-06-04T12:46:36;1.30;;;0.50;;
75854;SDS011;64502;59.976;30.316;2023-06-04T12:49:02;1.10;;;0.40;;
75854;SDS011;64502;59.976;30.316;2023-06-04T12:51:27;1.40;;;0.22;;
75854;SDS011;64502;59.976;30.316;2023-06-04T12:53:53;1.08;;;0.40;;
75854;SDS011;64502;59.976;30.316;2023-06-04T12:56:19;1.52;;;0.20;;
75854;SDS011;64502;59.976;30.316;2023-06-04T12:58:44;1.17;;;0.52;;
75854;SDS011;64502;59.976;30.316;2023-06-04T13:01:10;1.33;;;0.32;;
75854;SDS011;64502;59.976;30.316;2023-06-04T13:03:36;2.55;;;0.52;;
75854;SDS011;64502;59.976;30.316;2023-06-04T13:06:03;0.98;;;0.25;;
75854;SDS011;64502;59.976;30.316;2023-06-04T13:08:29;2.25;;;0.30;;
75854;SDS011;64502;59.976;30.316;2023-06-04T13:10:55;2.50;;;0.40;;
75854;SDS011;64502;59.976;30.316;2023-06-04T13:13:20;0.85;;;0.25;;
75854;SDS011;64502;59.976;30.316;2023-06-04T13:15:46;0.70;;;0.22;;
75854;SDS011;64502;59.976;30.316;2023-06-04T13:18:12;1.13;;;0.30;;
75854;SDS011;64502;59.976;30.316;2023-06-04T13:20:39;1.10;;;0.13;;
75854;SDS011;64502;59.976;30.316;2023-06-04T13:23:05;1.83;;;0.60;;
75854;SDS011;64502;59.976;30.316;2023-06-04T13:25:31;0.90;;;0.30;;
75854;SDS011;64502;59.976;30.316;2023-06-04T13:28:02;3.22;;;0.40;;
75854;SDS011;64502;59.976;30.316;2023-06-04T13:30:28;0.52;;;0.20;;
75854;SDS011;64502;59.976;30.316;2023-06-04T13:32:53;1.52;;;0.30;;
75854;SDS011;64502;59.976;30.316;2023-06-04T13:35:19;0.82;;;0.30;;
75854;SDS011;64502;59.976;30.316;2023-06-04T13:37:45;1.80;;;0.40;;
75854;SDS011;64502;59.976;30.316;2023-06-04T13:40:11;1.42;;;0.20;;
75854;SDS011;64502;59.976;30.316;2023-06-04T13:42:37;0.90;;;0.30;;
75854;SDS011;64502;59.976;30.316;2023-06-04T13:45:03;2.20;;;0.20;;
75854;SDS011;64502;59.976;30.316;2023-06-04T13:47:29;1.02;;;0.22;;
75854;SDS011;64502;59.976;30.316;2023-06-04T13:49:54;1.20;;;0.30;;
75854;SDS011;64502;59.976;30.316;2023-06-04T13:52:20;1.05;;;0.40;;
75854;SDS011;64502;59.976;30.316;2023-06-04T13:54:46;1.17;;;0.20;;
75854;SDS011;64502;59.976;30.316;2023-06-04T13:57:11;1.20;;;0.30;;
75854;SDS011;64502;59.976;30.316;2023-06-04T13:59:37;1.38;;;0.17;;
75854;SDS011;64502;59.976;30.316;2023-06-04T14:02:03;0.60;;;0.10;;
75854;SDS011;64502;59.976;30.316;2023-06-04T14:04:29;0.80;;;0.20;;
75854;SDS011;64502;59.976;30.316;2023-06-04T14:06:54;1.30;;;0.95;;
75854;SDS011;64502;59.976;30.316;2023-06-04T14:09:20;0.70;;;0.32;;
75854;SDS011;64502;59.976;30.316;2023-06-04T14:11:45;0.60;;;0.13;;
75854;SDS011;64502;59.976;30.316;2023-06-04T14:14:18;1.77;;;0.43;;
75854;SDS011;64502;59.976;30.316;2023-06-04T14:16:44;0.95;;;0.63;;
75854;SDS011;64502;59.976;30.316;2023-06-04T14:19:10;1.10;;;0.30;;
75854;SDS011;64502;59.976;30.316;2023-06-04T14:21:36;1.42;;;0.38;;
75854;SDS011;64502;59.976;30.316;2023-06-04T14:24:01;1.38;;;0.68;;
75854;SDS011;64502;59.976;30.316;2023-06-04T14:26:27;1.23;;;0.55;;
75854;SDS011;64502;59.976;30.316;2023-06-04T14:28:53;1.92;;;0.32;;
75854;SDS011;64502;59.976;30.316;2023-06-04T14:31:19;1.55;;;0.60;;
75854;SDS011;64502;59.976;30.316;2023-06-04T14:33:44;1.00;;;0.52;;
75854;SDS011;64502;59.976;30.316;2023-06-04T14:36:10;0.93;;;0.43;;
75854;SDS011;64502;59.976;30.316;2023-06-04T14:38:35;0.60;;;0.30;;
75854;SDS011;64502;59.976;30.316;2023-06-04T14:41:02;1.23;;;0.30;;